Time;durP1;ratioP1;P1;durP2;ratioP2;P2;SDS_P1;SDS_P2;PMS_P1;PMS_P2;Temp;Humidity;BMP_temperature;BMP_pressure;BME280_temperature;BME280_humidity;BME280_pressure;Samples;Min_cycle;Max_cycle;Signal;HPM_P1;HPM_P2
2023/08/08 00:00:46;;;;;;;18.52;4.95;;;;;;;15.68;100.00;155343.16;5058318;28;20513;-76
2023/08/08 00:03:12;;;;;;;11.13;3.22;;;;;;;15.73;100.00;155354.84;5059395;28;20485;-75
2023/08/08 00:05:37;;;;;;;15.23;3.03;;;;;;;15.67;100.00;155339.25;5063306;28;20115;-75
2023/08/08 00:08:03;;;;;;;16.90;3.00;;;;;;;15.65;100.00;155334.06;5064462;28;20398;-75
2023/08/08 00:10:28;;;;;;;17.13;3.40;;;;;;;15.60;100.00;155321.06;5069370;28;20039;-75
2023/08/08 00:12:54;;;;;;;15.37;3.67;;;;;;;15.59;100.00;155319.75;5064434;28;20032;-76
2023/08/08 00:15:19;;;;;;;10.33;3.23;;;;;;;15.54;100.00;155306.75;5058988;28;20057;-74
2023/08/08 00:17:44;;;;;;;11.77;3.37;;;;;;;15.53;100.00;155302.88;5062798;28;20033;-74
2023/08/08 00:20:10;;;;;;;14.90;3.60;;;;;;;15.54;100.00;155305.47;5057936;28;20124;-75
2023/08/08 00:22:35;;;;;;;14.97;4.33;;;;;;;15.53;100.00;155302.88;5060038;28;20043;-74
2023/08/08 00:25:01;;;;;;;13.97;3.83;;;;;;;15.55;100.00;155308.06;5056072;28;20120;-75
2023/08/08 00:27:27;;;;;;;17.37;3.67;;;;;;;15.57;100.00;155313.25;5068409;28;20124;-75
2023/08/08 00:29:53;;;;;;;11.37;3.13;;;;;;;15.55;100.00;155309.38;5058718;28;20067;-75
2023/08/08 00:32:19;;;;;;;17.50;3.17;;;;;;;15.62;100.00;155327.56;5059861;28;20039;-75
2023/08/08 00:34:44;;;;;;;15.10;3.80;;;;;;;15.64;100.00;155331.47;5068871;28;20111;-75
2023/08/08 00:37:10;;;;;;;14.23;4.23;;;;;;;15.63;100.00;155328.88;5060563;28;20020;-74
2023/08/08 00:39:35;;;;;;;17.07;4.10;;;;;;;15.60;100.00;155321.06;5064195;28;20135;-74
2023/08/08 00:42:00;;;;;;;15.63;3.40;;;;;;;15.69;100.00;154678.44;5064597;28;20025;-73
2023/08/08 00:44:26;;;;;;;15.93;3.97;;;;;;;15.68;100.00;143182.81;5060153;28;20029;-74
2023/08/08 00:46:51;;;;;;;16.70;4.00;;;;;;;15.68;100.00;126429.47;5061436;28;20028;-72
2023/08/08 00:49:17;;;;;;;18.20;4.53;;;;;;;15.64;100.00;105488.88;5065837;28;20120;-73
2023/08/08 00:51:43;;;;;;;20.97;6.03;;;;;;;15.57;100.00;88527.25;5058491;28;20134;-74
2023/08/08 00:54:09;;;;;;;19.93;4.37;;;;;;;15.55;100.00;71996.81;5060626;28;20036;-74
2023/08/08 00:56:35;;;;;;;16.42;4.07;;;;;;;15.49;100.00;60777.91;5066902;28;20420;-73
2023/08/08 00:59:02;;;;;;;22.57;3.83;;;;;;;15.46;100.00;50990.00;5063704;28;20033;-72
2023/08/08 01:01:27;;;;;;;13.70;3.70;;;;;;;15.44;100.00;42273.00;5068675;28;20521;-74
2023/08/08 01:03:53;;;;;;;13.67;3.37;;;;;;;15.44;100.00;34271.94;5059954;28;20123;-73
2023/08/08 01:06:29;;;;;;;15.70;3.97;;;;;;;15.40;100.00;29060.84;5066675;28;20016;-74
2023/08/08 01:09:00;;;;;;;18.83;4.00;;;;;;;15.40;100.00;22472.53;5060107;28;20505;-74
2023/08/08 01:11:30;;;;;;;14.13;4.25;;;;;;;15.49;100.00;16244.09;5064914;28;20124;-74
2023/08/08 01:13:56;;;;;;;15.40;3.72;;;;;;;15.45;100.00;10712.09;5058603;28;20144;-74
2023/08/08 01:16:23;;;;;;;18.13;4.00;;;;;;;15.50;100.00;6224.75;5063578;28;20393;-76
2023/08/08 01:18:50;;;;;;;23.02;4.28;;;;;;;15.46;100.00;3120.19;5059942;28;20100;-74
2023/08/08 01:21:16;;;;;;;20.60;4.90;;;;;;;15.54;100.00;2086.56;5061471;28;20405;-75
2023/08/08 01:24:21;;;;;;;17.50;3.80;;;;;;;15.51;100.00;2086.34;5092392;28;20057;-74
2023/08/08 01:26:47;;;;;;;20.58;5.03;;;;;;;15.50;100.00;1741.59;5076157;28;20035;-74
2023/08/08 01:29:13;;;;;;;26.40;5.63;;;;;;;15.50;100.00;1052.34;5062592;28;20037;-74
2023/08/08 01:31:38;;;;;;;29.37;4.70;;;;;;;15.54;100.00;707.97;5060692;28;20031;-74
2023/08/08 01:34:04;;;;;;;18.40;3.90;;;;;;;15.55;100.00;363.41;5082777;28;20036;-75
2023/08/08 01:36:35;;;;;;;21.73;5.73;;;;;;;15.54;100.00;1052.56;5064884;28;20123;-74
2023/08/08 01:39:04;;;;;;;18.45;4.88;;;;;;;15.56;100.00;1052.66;5078459;28;20029;-74
2023/08/08 01:41:32;;;;;;;23.30;4.22;;;;;;;15.49;100.00;1052.31;5051624;28;20035;-74
2023/08/08 01:44:01;;;;;;;23.50;4.07;;;;;;;15.40;100.00;1396.44;5061539;28;20029;-74
2023/08/08 01:46:26;;;;;;;19.10;5.03;;;;;;;15.35;100.00;1051.66;5064513;28;20029;-75
2023/08/08 01:48:52;;;;;;;21.80;5.10;;;;;;;15.29;100.00;362.47;5066993;28;20032;-74
2023/08/08 01:51:17;;;;;;;22.80;3.97;;;;;;;15.24;100.00;362.28;5059386;28;20032;-75
2023/08/08 01:53:43;;;;;;;26.40;4.57;;;;;;;15.24;100.00;17.91;5065602;28;20024;-75
2023/08/08 01:56:08;;;;;;;17.90;5.33;;;;;;;15.25;100.00;-326.41;5066290;28;20028;-74
2023/08/08 01:58:34;;;;;;;22.57;4.37;;;;;;;15.25;100.00;-1015.03;5071142;28;20054;-74
2023/08/08 02:00:59;;;;;;;19.07;5.07;;;;;;;15.32;100.00;-1703.47;5059893;28;20055;-75
2023/08/08 02:03:24;;;;;;;22.83;4.97;;;;;;;15.33;100.00;-1703.47;5064713;28;20028;-74
2023/08/08 02:05:50;;;;;;;25.53;4.27;;;;;;;15.32;100.00;-1703.47;5064737;28;20106;-74
2023/08/08 02:08:15;;;;;;;27.87;4.77;;;;;;;15.32;100.00;-2047.72;5067105;28;20037;-74
2023/08/08 02:10:41;;;;;;;30.63;4.90;;;;;;;15.29;100.00;-1703.50;5066000;28;20016;-74
2023/08/08 02:13:06;;;;;;;26.73;5.60;;;;;;;15.31;100.00;-1703.47;5061821;28;20052;-75
2023/08/08 02:15:31;;;;;;;24.17;4.63;;;;;;;15.25;100.00;-1703.50;5068380;28;20045;-75
2023/08/08 02:17:59;;;;;;;22.70;6.40;;;;;;;15.19;100.00;-1703.53;5066870;28;20390;-75
2023/08/08 02:20:24;;;;;;;23.13;6.13;;;;;;;15.09;100.00;-1359.41;5066692;28;20107;-73
2023/08/08 02:22:49;;;;;;;27.10;4.57;;;;;;;15.00;100.00;-1359.50;5060092;28;20154;-72
2023/08/08 02:25:15;;;;;;;25.63;5.50;;;;;;;14.96;100.00;-1359.53;5064578;28;20060;-73
2023/08/08 02:27:42;;;;;;;17.43;4.17;;;;;;;14.97;100.00;-2047.63;5063279;28;20059;-74
2023/08/08 02:30:07;;;;;;;21.00;5.03;;;;;;;14.95;100.00;-2735.59;5066629;28;20468;-75
2023/08/08 02:32:33;;;;;;;18.37;5.20;;;;;;;14.93;100.00;-2735.56;5068116;28;20133;-73
2023/08/08 02:34:58;;;;;;;27.73;5.97;;;;;;;14.89;100.00;-3079.41;5077393;28;20048;-73
2023/08/08 02:37:24;;;;;;;23.63;5.40;;;;;;;14.86;100.00;-3423.19;5071442;28;20017;-73
2023/08/08 02:39:49;;;;;;;22.37;5.27;;;;;;;14.86;100.00;-3767.03;5065859;28;20033;-73
2023/08/08 02:42:15;;;;;;;17.20;4.37;;;;;;;14.85;100.00;-3423.16;5063873;28;20051;-73
2023/08/08 02:44:40;;;;;;;22.83;5.37;;;;;;;14.74;100.00;-3079.13;5063973;28;20033;-73
2023/08/08 02:47:06;;;;;;;17.43;5.10;;;;;;;14.74;100.00;-3079.13;5066046;28;20029;-73
2023/08/08 02:49:33;;;;;;;19.47;5.13;;;;;;;14.75;100.00;-3422.91;5061141;28;20115;-72
2023/08/08 02:51:59;;;;;;;16.35;4.28;;;;;;;14.71;100.00;-3422.84;5065247;28;20021;-73
2023/08/08 02:54:24;;;;;;;17.80;4.37;;;;;;;14.67;100.00;-3422.72;5061722;28;20449;-72
2023/08/08 02:56:49;;;;;;;22.33;4.37;;;;;;;14.62;100.00;-3422.63;5057778;28;20487;-71
2023/08/08 02:59:15;;;;;;;10.83;4.03;;;;;;;14.59;100.00;-3422.53;5066925;28;20029;-71
2023/08/08 03:01:40;;;;;;;11.73;4.77;;;;;;;14.55;100.00;-3766.06;5059909;28;20110;-72
2023/08/08 03:04:06;;;;;;;15.23;4.63;;;;;;;14.53;100.00;-4109.63;5065604;28;20048;-73
2023/08/08 03:06:31;;;;;;;17.23;4.63;;;;;;;14.53;100.00;-4453.19;5063289;28;20482;-71
2023/08/08 03:08:57;;;;;;;25.43;5.10;;;;;;;14.49;100.00;-4796.56;5098816;28;20036;-71
2023/08/08 03:11:22;;;;;;;25.53;6.87;;;;;;;14.55;100.00;-5140.38;5063572;28;20425;-72
2023/08/08 03:13:47;;;;;;;25.07;5.33;;;;;;;14.54;100.00;-5140.31;5067299;28;20060;-71
2023/08/08 03:16:13;;;;;;;25.17;6.60;;;;;;;14.46;100.00;-4796.41;5062289;28;20024;-73
2023/08/08 03:18:41;;;;;;;21.60;4.80;;;;;;;14.41;100.00;-4796.19;5059443;28;20032;-74
2023/08/08 03:21:06;;;;;;;23.27;5.45;;;;;;;14.46;100.00;-5826.78;5066792;28;20120;-73
2023/08/08 03:23:32;;;;;;;18.50;5.30;;;;;;;14.41;100.00;-5826.47;5060915;28;20526;-72
2023/08/08 03:25:59;;;;;;;24.53;6.03;;;;;;;14.35;100.00;-5482.69;5078074;28;20116;-71
2023/08/08 03:28:24;;;;;;;;;;;;;;;14.37;100.00;-5826.19;5066125;28;20048;-72
2023/08/08 03:30:49;;;;;;;22.40;4.88;;;;;;;14.35;100.00;-5482.72;5061109;28;19966;-72
2023/08/08 03:33:15;;;;;;;20.77;4.63;;;;;;;14.28;100.00;-5138.94;5063534;28;20031;-73
2023/08/08 03:35:40;;;;;;;19.27;5.40;;;;;;;14.23;100.00;-5138.69;5059439;28;20104;-72
2023/08/08 03:38:06;;;;;;;21.47;4.63;;;;;;;14.16;100.00;-4795.00;5070019;28;20059;-74
2023/08/08 03:40:31;;;;;;;22.10;5.43;;;;;;;14.12;100.00;-4451.50;5063898;28;20486;-74
2023/08/08 03:42:56;;;;;;;18.57;4.70;;;;;;;14.11;100.00;-4451.44;5063229;28;20031;-71
2023/08/08 03:45:22;;;;;;;19.73;5.67;;;;;;;14.13;100.00;-4451.53;5064887;28;20040;-72
2023/08/08 03:47:47;;;;;;;18.57;5.27;;;;;;;14.14;100.00;-4451.56;5065983;28;20031;-73
2023/08/08 03:50:14;;;;;;;23.80;5.27;;;;;;;14.14;100.00;-4451.59;5060461;28;20028;-73
2023/08/08 03:52:40;;;;;;;10.65;4.20;;;;;;;14.17;100.00;-4451.72;5059210;28;20028;-72
2023/08/08 03:55:05;;;;;;;15.10;3.97;;;;;;;14.23;100.00;-4795.31;5064729;28;20118;-74
2023/08/08 03:57:31;;;;;;;15.20;4.37;;;;;;;14.27;100.00;-4452.09;5059152;28;20144;-73
2023/08/08 03:59:56;;;;;;;17.83;4.40;;;;;;;14.28;100.00;-4795.59;5060157;28;20024;-72
2023/08/08 04:02:22;;;;;;;24.10;4.43;;;;;;;14.29;100.00;-4452.22;5062184;28;20029;-73
2023/08/08 04:04:47;;;;;;;15.03;5.10;;;;;;;14.27;100.00;-3765.22;5078331;28;20024;-72
2023/08/08 04:07:12;;;;;;;9.00;4.13;;;;;;;14.26;100.00;-3421.69;5079648;28;20513;-74
2023/08/08 04:09:38;;;;;;;11.53;3.60;;;;;;;14.31;100.00;-3078.28;5063307;28;20107;-73
2023/08/08 04:12:03;;;;;;;16.63;4.97;;;;;;;14.29;100.00;-2391.06;5064751;28;20032;-72
2023/08/08 04:14:29;;;;;;;10.53;3.57;;;;;;;14.28;100.00;-2047.44;5057572;28;20041;-73
2023/08/08 04:16:54;;;;;;;15.47;3.77;;;;;;;14.29;100.00;-328.84;5055365;28;20025;-73
2023/08/08 04:19:20;;;;;;;14.50;3.77;;;;;;;14.27;100.00;1046.50;5075945;28;20028;-73
2023/08/08 04:21:45;;;;;;;7.70;3.10;;;;;;;14.20;100.00;3798.13;5065576;28;20028;-73
2023/08/08 04:24:12;;;;;;;15.47;3.17;;;;;;;14.15;100.00;7928.88;5066631;28;20539;-73
2023/08/08 04:26:37;;;;;;;11.20;3.20;;;;;;;14.08;100.00;11718.28;5062716;28;20055;-72
2023/08/08 04:29:03;;;;;;;7.47;3.03;;;;;;;14.17;100.00;16205.34;5061441;28;20032;-73
2023/08/08 04:31:28;;;;;;;7.63;3.10;;;;;;;14.18;100.00;21732.72;5064082;28;20052;-72
2023/08/08 04:33:59;;;;;;;9.37;2.60;;;;;;;14.20;100.00;27615.00;5078200;28;20040;-72
2023/08/08 04:36:25;;;;;;;13.32;3.30;;;;;;;14.19;100.00;31771.41;5063896;28;20055;-72
2023/08/08 04:38:51;;;;;;;17.67;3.33;;;;;;;14.26;100.00;36284.06;5062172;28;20029;-74
2023/08/08 04:41:16;;;;;;;8.30;3.17;;;;;;;14.29;100.00;48451.84;5061929;28;20496;-75
2023/08/08 04:43:41;;;;;;;9.63;2.40;;;;;;;14.26;100.00;58208.41;5063897;28;20032;-75
2023/08/08 04:46:07;;;;;;;14.67;3.10;;;;;;;14.28;100.00;70443.44;5061854;28;20138;-75
2023/08/08 04:48:32;;;;;;;7.37;2.33;;;;;;;14.34;100.00;80966.25;5062226;28;20406;-75
2023/08/08 04:50:58;;;;;;;11.77;2.37;;;;;;;14.38;100.00;93980.75;5075648;28;20070;-75
2023/08/08 04:53:23;;;;;;;3.07;1.90;;;;;;;14.33;100.00;99610.94;5071877;28;20037;-75
2023/08/08 04:55:49;;;;;;;7.67;2.17;;;;;;;14.34;100.00;99260.84;5063578;28;20488;-75
2023/08/08 04:58:14;;;;;;;12.63;2.90;;;;;;;14.35;100.00;98204.00;5061590;28;20039;-75
2023/08/08 05:00:39;;;;;;;6.50;2.00;;;;;;;14.36;100.00;91161.38;5060379;28;20040;-75
2023/08/08 05:03:05;;;;;;;11.60;2.77;;;;;;;14.34;100.00;91158.31;5062107;28;20108;-75
2023/08/08 05:05:30;;;;;;;12.27;2.13;;;;;;;14.39;100.00;91517.88;5059829;28;20037;-75
2023/08/08 05:07:55;;;;;;;7.17;2.57;;;;;;;14.45;100.00;102454.38;5058375;28;20025;-75
2023/08/08 05:10:21;;;;;;;7.03;2.17;;;;;;;14.44;100.00;107395.91;5062654;28;20044;-75
2023/08/08 05:12:46;;;;;;;10.07;2.00;;;;;;;14.40;100.00;118357.06;5059527;28;20046;-75
2023/08/08 05:15:12;;;;;;;3.13;2.03;;;;;;;14.41;100.00;131489.09;5061901;28;20425;-75
2023/08/08 05:17:37;;;;;;;7.83;2.27;;;;;;;14.44;100.00;138610.88;5062429;28;20161;-75
2023/08/08 05:20:03;;;;;;;4.93;1.67;;;;;;;14.51;100.00;155037.81;5065831;28;20029;-75
2023/08/08 05:22:29;;;;;;;6.63;1.98;;;;;;;14.52;100.00;155040.41;5063426;28;20027;-74
2023/08/08 05:24:57;;;;;;;8.50;2.70;;;;;;;14.60;100.00;155062.47;5062470;28;20028;-74
2023/08/08 05:27:23;;;;;;;8.88;1.88;;;;;;;14.70;100.00;155088.47;5063227;28;20501;-75
2023/08/08 05:29:48;;;;;;;7.47;1.93;;;;;;;14.84;100.00;155123.53;5062682;28;20111;-75
2023/08/08 05:32:13;;;;;;;7.30;2.27;;;;;;;14.97;100.00;155158.59;5065578;28;20032;-74
2023/08/08 05:34:39;;;;;;;5.23;2.10;;;;;;;15.06;100.00;155181.94;5077506;28;20032;-74
2023/08/08 05:37:04;;;;;;;9.23;2.67;;;;;;;15.15;100.00;155204.09;5066560;28;20169;-74
2023/08/08 05:39:30;;;;;;;7.47;1.90;;;;;;;15.17;100.00;155209.25;5066220;28;20035;-74
2023/08/08 05:41:56;;;;;;;10.73;1.48;;;;;;;15.22;100.00;155222.25;5097109;28;20033;-75
2023/08/08 05:44:21;;;;;;;4.73;2.10;;;;;;;15.32;100.00;155248.25;5064888;28;20500;-75
2023/08/08 05:46:47;;;;;;;13.37;2.07;;;;;;;15.40;100.00;155270.38;5065403;28;20474;-74
2023/08/08 05:49:12;;;;;;;6.70;2.00;;;;;;;15.49;100.00;155292.47;5076658;28;20025;-74
2023/08/08 05:51:37;;;;;;;11.97;2.20;;;;;;;15.55;100.00;155308.06;5067253;28;20107;-74
2023/08/08 05:54:03;;;;;;;7.77;1.67;;;;;;;15.54;100.00;155306.75;5067849;28;20154;-74
2023/08/08 05:56:38;;;;;;;5.33;2.00;;;;;;;15.49;100.00;155292.47;5068209;28;20021;-73
2023/08/08 05:59:04;;;;;;;9.20;1.75;;;;;;;15.62;100.00;155326.25;5069050;28;20485;-74
2023/08/08 06:01:31;;;;;;;5.13;1.60;;;;;;;15.79;100.00;155370.47;5065380;28;20038;-73
2023/08/08 06:03:59;;;;;;;9.68;1.90;;;;;;;15.83;100.00;155382.16;5064849;28;20036;-73
2023/08/08 06:06:25;;;;;;;6.60;1.58;;;;;;;15.83;100.00;155380.84;5067901;28;20048;-74
2023/08/08 06:08:51;;;;;;;4.72;1.60;;;;;;;15.95;100.00;155413.34;5062918;28;20024;-73
2023/08/08 06:11:17;;;;;;;6.68;2.50;;;;;;;16.03;100.00;155432.84;5062530;28;20090;-74
2023/08/08 06:13:43;;;;;;;6.85;1.83;;;;;;;16.19;100.00;155474.47;5064605;28;20024;-74
2023/08/08 06:16:09;;;;;;;6.57;1.80;;;;;;;16.25;100.00;155490.06;5070103;28;20028;-73
2023/08/08 06:18:35;;;;;;;4.33;1.90;;;;;;;16.30;100.00;155504.41;5055873;28;20032;-74
2023/08/08 06:21:00;;;;;;;4.47;1.80;;;;;;;16.44;100.00;155540.81;5066797;28;20352;-73
2023/08/08 06:23:25;;;;;;;6.07;1.83;;;;;;;16.69;100.00;155604.56;5067529;28;20106;-74
2023/08/08 06:25:51;;;;;;;8.73;2.23;;;;;;;16.62;100.00;155587.69;5070486;28;20386;-73
2023/08/08 06:28:16;;;;;;;5.27;1.80;;;;;;;16.53;100.00;155562.94;5065490;28;20036;-74
2023/08/08 06:30:41;;;;;;;8.67;1.50;;;;;;;16.52;100.00;155561.66;5066649;28;20469;-73
2023/08/08 06:33:08;;;;;;;4.50;2.00;;;;;;;16.48;100.00;155549.97;5063610;28;22193;-74
2023/08/08 06:35:33;;;;;;;9.50;1.83;;;;;;;17.10;100.00;155711.25;5064804;28;20033;-73
2023/08/08 06:37:59;;;;;;;5.43;1.53;;;;;;;17.82;100.00;155898.75;5060943;28;20508;-75
2023/08/08 06:40:25;;;;;;;8.57;2.10;;;;;;;17.42;100.00;155794.59;5067793;28;20070;-73
2023/08/08 06:42:50;;;;;;;9.50;1.90;;;;;;;17.75;100.00;155881.81;5063719;28;20429;-73
2023/08/08 06:45:15;;;;;;;7.40;1.77;;;;;;;19.03;100.00;156214.00;5065372;28;20033;-72
2023/08/08 06:47:41;;;;;;;13.40;2.23;;;;;;;18.79;100.00;156152.75;5063237;28;20063;-72
2023/08/08 06:50:07;;;;;;;11.33;1.83;;;;;;;18.89;100.00;156178.81;5062669;28;20033;-72
2023/08/08 06:52:32;;;;;;;5.43;1.80;;;;;;;18.83;99.27;156163.19;5060082;28;20123;-73
2023/08/08 06:54:58;;;;;;;4.37;1.23;;;;;;;19.04;97.73;156217.91;5068314;28;20115;-72
2023/08/08 06:57:23;;;;;;;4.07;1.43;;;;;;;19.43;96.00;156318.34;5064296;28;20373;-73
2023/08/08 06:59:50;;;;;;;8.27;1.37;;;;;;;19.75;89.42;156401.78;5066943;28;20482;-72
2023/08/08 07:02:17;;;;;;;5.30;1.33;;;;;;;19.94;88.54;156452.63;5064910;28;20857;-73
2023/08/08 07:04:42;;;;;;;5.50;1.30;;;;;;;20.07;85.47;156485.31;5099335;28;20078;-72
2023/08/08 07:07:08;;;;;;;5.27;2.10;;;;;;;20.60;83.67;156624.84;5066780;28;20044;-73
2023/08/08 07:09:33;;;;;;;4.60;1.27;;;;;;;20.28;80.13;156540.09;5063623;28;20036;-73
2023/08/08 07:11:59;;;;;;;6.03;1.20;;;;;;;20.18;80.54;156514.00;5063949;28;20032;-72
2023/08/08 07:14:24;;;;;;;3.83;1.50;;;;;;;19.60;80.60;156362.66;5077110;28;20052;-72
2023/08/08 07:16:49;;;;;;;5.03;1.63;;;;;;;19.25;82.77;156272.72;5063950;28;20039;-73
2023/08/08 07:19:16;;;;;;;2.10;1.40;;;;;;;19.12;84.79;156237.47;5064210;28;20195;-73
2023/08/08 07:21:41;;;;;;;3.17;1.25;;;;;;;18.93;86.26;156187.94;5066375;28;20105;-72
2023/08/08 07:24:07;;;;;;;3.83;1.33;;;;;;;18.69;86.41;156125.41;5053646;28;20036;-72
2023/08/08 07:26:32;;;;;;;3.77;1.10;;;;;;;18.46;85.19;156066.78;5065014;28;20024;-72
2023/08/08 07:28:58;;;;;;;8.50;1.40;;;;;;;18.42;85.66;156055.06;5067201;28;20381;-72
2023/08/08 07:31:23;;;;;;;7.00;1.53;;;;;;;18.54;85.72;156086.31;5064587;28;20078;-73
2023/08/08 07:33:48;;;;;;;1.70;1.07;;;;;;;18.65;84.44;156114.97;5063104;28;20059;-73
2023/08/08 07:36:14;;;;;;;2.40;0.80;;;;;;;18.72;83.48;156133.25;5068414;28;20038;-73
2023/08/08 07:38:39;;;;;;;5.37;1.33;;;;;;;19.18;82.11;156253.09;5066378;28;20100;-72
2023/08/08 07:41:05;;;;;;;3.87;1.00;;;;;;;19.74;81.32;156400.47;5079224;28;20097;-72
2023/08/08 07:43:30;;;;;;;1.70;1.17;;;;;;;19.85;77.29;156429.16;5059143;28;20021;-71
2023/08/08 07:45:55;;;;;;;5.90;1.10;;;;;;;19.54;78.93;156347.03;5059240;28;20478;-71
2023/08/08 07:48:21;;;;;;;3.37;1.20;;;;;;;19.88;80.64;156435.66;5059021;28;20052;-71
2023/08/08 07:50:47;;;;;;;5.67;1.17;;;;;;;19.85;79.13;156429.16;5063594;28;20041;-71
2023/08/08 07:53:13;;;;;;;4.20;1.00;;;;;;;19.61;77.32;156365.25;5056363;28;20476;-72
2023/08/08 07:55:38;;;;;;;5.67;1.10;;;;;;;19.27;80.26;156276.63;5063283;28;20064;-71
2023/08/08 07:58:06;;;;;;;4.53;1.00;;;;;;;18.80;79.03;156155.41;5062897;28;20066;-71
2023/08/08 08:00:33;;;;;;;5.18;1.20;;;;;;;18.75;80.79;156142.38;5063223;28;20067;-71
2023/08/08 08:02:58;;;;;;;3.10;1.13;;;;;;;18.90;80.10;156181.41;5063593;28;20392;-71
2023/08/08 08:05:24;;;;;;;4.73;1.20;;;;;;;18.85;80.04;156167.09;5066128;28;20032;-71
2023/08/08 08:07:49;;;;;;;4.10;1.00;;;;;;;18.92;79.02;156185.34;5059162;28;20394;-71
2023/08/08 08:10:15;;;;;;;3.27;0.97;;;;;;;18.89;79.75;156178.81;5058429;28;20104;-74
2023/08/08 08:12:41;;;;;;;3.77;1.03;;;;;;;18.75;78.38;156141.03;5064706;28;20032;-74
2023/08/08 08:15:07;;;;;;;2.70;1.23;;;;;;;18.98;77.54;156200.97;5061364;28;20482;-74
2023/08/08 08:17:33;;;;;;;3.28;1.13;;;;;;;18.93;77.06;156189.25;5067987;28;20036;-73
2023/08/08 08:19:58;;;;;;;3.57;0.90;;;;;;;18.82;78.60;156160.59;5060565;28;20909;-73
2023/08/08 08:22:24;;;;;;;4.80;1.13;;;;;;;18.92;80.02;156185.34;5077812;28;20094;-74
2023/08/08 08:24:50;;;;;;;1.30;1.00;;;;;;;19.23;79.17;156266.19;5064157;28;20032;-74
2023/08/08 08:27:15;;;;;;;3.67;1.45;;;;;;;19.27;77.01;156277.91;5063925;28;20560;-74
2023/08/08 08:29:41;;;;;;;8.20;1.17;;;;;;;19.32;76.68;156290.94;5061966;28;20107;-74
2023/08/08 08:32:06;;;;;;;1.93;1.00;;;;;;;19.20;77.37;156258.34;5059477;28;20359;-74
2023/08/08 08:34:32;;;;;;;7.20;1.33;;;;;;;19.30;75.52;156284.44;5082302;28;20450;-73
2023/08/08 08:36:57;;;;;;;2.10;1.00;;;;;;;19.36;75.69;156300.13;5066741;28;20031;-74
2023/08/08 08:39:23;;;;;;;4.10;1.10;;;;;;;19.13;74.80;156240.06;5058953;28;20063;-73
2023/08/08 08:41:54;;;;;;;6.30;2.13;;;;;;;18.99;76.45;156203.63;5060927;28;20028;-74
2023/08/08 08:44:21;;;;;;;3.58;1.27;;;;;;;19.29;77.96;156281.84;5060640;28;20036;-74
2023/08/08 08:46:48;;;;;;;2.35;1.10;;;;;;;19.39;74.52;156307.91;5055828;28;20028;-74
2023/08/08 08:49:15;;;;;;;6.22;1.45;;;;;;;19.63;73.97;156370.50;5061749;28;20390;-74
2023/08/08 08:51:41;;;;;;;2.95;1.23;;;;;;;19.87;73.70;156434.41;5063669;28;20024;-74
2023/08/08 08:54:07;;;;;;;11.40;1.43;;;;;;;19.78;74.19;156410.91;5060380;28;20039;-73
2023/08/08 08:56:32;;;;;;;4.03;1.40;;;;;;;19.98;74.67;156461.75;5059933;28;20841;-74
2023/08/08 08:58:59;;;;;;;7.15;1.02;;;;;;;19.69;74.67;156386.16;5066130;28;20035;-74
2023/08/08 09:01:24;;;;;;;2.72;1.42;;;;;;;19.46;73.51;156326.16;5055971;28;20051;-73
2023/08/08 09:03:50;;;;;;;1.33;1.10;;;;;;;19.74;73.63;156399.19;5067616;28;20075;-74
2023/08/08 09:06:17;;;;;;;5.70;1.20;;;;;;;20.16;70.86;156508.78;5061240;28;20498;-74
2023/08/08 09:08:42;;;;;;;1.60;0.95;;;;;;;19.71;69.74;156392.66;5071458;28;20025;-74
2023/08/08 09:11:08;;;;;;;2.13;1.30;;;;;;;19.99;69.95;156465.69;5065855;28;20074;-75
2023/08/08 09:13:37;;;;;;;1.97;1.10;;;;;;;20.45;70.86;156585.75;5067860;28;20116;-74
2023/08/08 09:16:04;;;;;;;2.70;1.20;;;;;;;20.44;70.78;156581.81;5062023;28;20071;-74
2023/08/08 09:18:31;;;;;;;5.55;1.48;;;;;;;20.16;70.87;156510.06;5063515;28;20481;-74
2023/08/08 09:20:58;;;;;;;3.88;1.52;;;;;;;19.64;71.25;156374.38;5067929;28;20500;-73
2023/08/08 09:23:23;;;;;;;3.17;1.13;;;;;;;19.31;70.66;156288.34;5062257;28;20036;-73
2023/08/08 09:25:49;;;;;;;2.33;1.30;;;;;;;19.77;70.44;156408.31;5064326;28;20390;-72
2023/08/08 09:28:14;;;;;;;6.03;1.27;;;;;;;19.59;68.75;156360.06;5063057;28;20033;-73
2023/08/08 09:30:42;;;;;;;3.50;1.77;;;;;;;19.19;68.30;156257.03;5062294;28;20028;-72
2023/08/08 09:33:07;;;;;;;3.40;1.17;;;;;;;19.27;69.92;156276.63;5062811;28;20097;-73
2023/08/08 09:35:33;;;;;;;6.70;1.53;;;;;;;19.69;70.85;156386.16;5061434;28;20063;-73
2023/08/08 09:37:59;;;;;;;2.77;1.20;;;;;;;19.91;69.56;156443.50;5065893;28;20033;-73
2023/08/08 09:40:24;;;;;;;5.88;1.50;;;;;;;20.04;68.48;156477.41;5059749;28;20029;-73
2023/08/08 09:42:53;;;;;;;7.90;1.63;;;;;;;20.26;67.80;156534.84;5066826;28;20028;-73
2023/08/08 09:45:19;;;;;;;5.03;1.20;;;;;;;20.41;68.82;156573.97;5067025;28;20082;-72
2023/08/08 09:47:45;;;;;;;7.77;1.93;;;;;;;20.51;68.89;156600.06;5069929;28;20100;-73
2023/08/08 09:50:10;;;;;;;5.47;1.10;;;;;;;20.13;67.43;156500.94;5070004;28;20262;-75
2023/08/08 09:52:38;;;;;;;1.60;0.90;;;;;;;20.74;67.72;156660.06;5069370;28;20062;-74
2023/08/08 09:55:04;;;;;;;3.38;1.30;;;;;;;20.75;67.42;156662.72;5067363;28;20025;-74
2023/08/08 09:57:30;;;;;;;4.65;1.17;;;;;;;20.54;67.77;156607.94;5067120;28;20513;-73
2023/08/08 09:59:56;;;;;;;3.30;1.33;;;;;;;20.33;68.64;156553.13;5062964;28;20107;-74
2023/08/08 10:02:21;;;;;;;7.33;1.60;;;;;;;20.38;68.46;156567.44;5062435;28;20033;-74
2023/08/08 10:04:47;;;;;;;3.67;1.20;;;;;;;20.51;67.10;156600.06;5060992;28;20490;-74
2023/08/08 10:07:12;;;;;;;16.45;2.47;;;;;;;20.73;66.24;156658.81;5059674;28;20095;-74
2023/08/08 10:09:38;;;;;;;6.80;1.20;;;;;;;20.77;67.08;156669.25;5062969;28;20033;-75
2023/08/08 10:12:07;;;;;;;2.92;1.20;;;;;;;20.44;66.38;156583.09;5065277;28;20074;-75
2023/08/08 10:14:36;;;;;;;1.08;0.85;;;;;;;19.92;67.55;156446.13;5059768;28;20079;-74
2023/08/08 10:17:06;;;;;;;4.75;1.23;;;;;;;20.13;68.51;156502.28;5065903;28;20017;-73
2023/08/08 10:19:32;;;;;;;5.90;1.00;;;;;;;20.07;68.58;156485.31;5058812;28;20111;-75
2023/08/08 10:22:04;;;;;;;2.80;1.25;;;;;;;20.26;67.63;156534.84;5064131;28;20040;-74
2023/08/08 10:24:36;;;;;;;2.60;1.00;;;;;;;20.90;68.73;156701.88;5063394;28;20098;-74
2023/08/08 10:27:04;;;;;;;5.93;1.02;;;;;;;21.33;67.01;156814.13;5064475;28;20114;-74
2023/08/08 10:29:32;;;;;;;6.07;0.90;;;;;;;21.38;65.09;156827.19;5067770;28;20509;-74
2023/08/08 10:31:58;;;;;;;2.63;0.98;;;;;;;20.96;65.24;156717.59;5070609;28;20024;-73
2023/08/08 10:34:38;;;;;;;11.70;1.30;;;;;;;21.01;64.34;156730.59;5068267;28;20489;-74
2023/08/08 10:37:15;;;;;;;2.45;0.80;;;;;;;20.59;64.18;156622.25;5060775;28;20484;-74
2023/08/08 10:40:11;;;;;;;1.85;0.80;;;;;;;20.73;62.49;156657.47;5066231;28;20020;-73
2023/08/08 10:42:45;;;;;;;2.55;1.02;;;;;;;20.40;63.95;156572.69;5043206;28;20075;-74
2023/08/08 10:45:13;;;;;;;2.22;0.95;;;;;;;20.60;62.07;156623.56;5059645;28;20423;-74
2023/08/08 10:47:40;;;;;;;2.20;0.90;;;;;;;20.92;63.21;156707.13;5064123;28;20496;-75
2023/08/08 10:50:09;;;;;;;3.50;1.05;;;;;;;21.09;63.89;156751.50;5066375;28;20540;-75
2023/08/08 10:52:55;;;;;;;5.40;1.10;;;;;;;21.03;61.75;156735.84;5065353;28;20105;-74
2023/08/08 10:55:22;;;;;;;1.45;0.88;;;;;;;21.21;63.37;156782.81;5068668;28;20028;-74
2023/08/08 10:58:02;;;;;;;10.43;1.80;;;;;;;21.59;63.21;156882.03;5069421;28;20024;-74
2023/08/08 11:00:31;;;;;;;5.38;0.98;;;;;;;20.92;64.24;156707.13;5059030;28;20035;-74
2023/08/08 11:02:57;;;;;;;3.25;1.45;;;;;;;21.23;64.78;156788.06;5064836;28;20086;-73
2023/08/08 11:05:23;;;;;;;;;;;;;;;21.74;62.45;156922.59;5063798;28;20031;-74
2023/08/08 11:07:49;;;;;;;5.47;0.90;;;;;;;21.94;59.37;156973.50;5069589;28;19917;-73
2023/08/08 11:10:14;;;;;;;3.75;0.95;;;;;;;21.94;59.15;156973.50;5064872;28;20119;-75
2023/08/08 11:12:40;;;;;;;7.10;0.93;;;;;;;21.72;59.82;156916.06;5060018;28;20024;-75
2023/08/08 11:15:06;;;;;;;2.93;1.00;;;;;;;21.93;57.70;156970.91;5065204;28;20110;-74
2023/08/08 11:17:33;;;;;;;6.22;1.00;;;;;;;21.83;59.29;156946.06;5069363;28;20013;-75